Time;durP1;ratioP1;P1;durP2;ratioP2;P2;SDS_P1;SDS_P2;PMS_P1;PMS_P2;Temp;Humidity;BMP_temperature;BMP_pressure;BME280_temperature;BME280_humidity;BME280_pressure;Samples;Min_cycle;Max_cycle;Signal;HPM_P1;HPM_P2
2023/11/28 00:00:48;;;;;;;0.40;0.30;;;7.80;99.90;;;;;;5053489;28;20214;-62
2023/11/28 00:03:15;;;;;;;0.53;0.40;;;7.80;99.90;;;;;;5052602;28;20209;-64
2023/11/28 00:05:42;;;;;;;0.60;0.60;;;7.80;99.90;;;;;;5052950;28;20304;-63
2023/11/28 00:08:08;;;;;;;0.87;0.27;;;7.80;99.90;;;;;;5052866;28;20210;-65
2023/11/28 00:10:35;;;;;;;0.30;0.20;;;7.70;99.90;;;;;;5053155;28;20218;-68
2023/11/28 00:13:03;;;;;;;0.20;0.20;;;7.70;99.90;;;;;;5052795;28;20212;-62
2023/11/28 00:15:30;;;;;;;0.57;0.40;;;7.70;99.90;;;;;;5052858;28;20205;-62
2023/11/28 00:17:56;;;;;;;1.17;0.27;;;7.70;99.90;;;;;;5052553;28;20336;-62
2023/11/28 00:20:23;;;;;;;0.50;0.40;;;7.70;99.90;;;;;;5052842;28;20209;-60
2023/11/28 00:22:50;;;;;;;0.13;0.13;;;7.70;99.90;;;;;;5052789;28;20210;-63
2023/11/28 00:25:18;;;;;;;0.40;0.20;;;7.60;99.90;;;;;;5052545;28;20226;-61
2023/11/28 00:27:45;;;;;;;0.30;0.20;;;7.60;99.90;;;;;;5052402;28;20853;-63
2023/11/28 00:30:15;;;;;;;0.47;0.30;;;7.60;99.90;;;;;;5052550;28;20233;-63
2023/11/28 00:32:41;;;;;;;0.40;0.23;;;7.60;99.90;;;;;;5052435;28;20213;-63
2023/11/28 00:35:09;;;;;;;0.40;0.30;;;7.60;99.90;;;;;;5052473;28;20230;-62
2023/11/28 00:37:35;;;;;;;0.70;0.30;;;7.60;99.90;;;;;;5052246;28;20206;-63
2023/11/28 00:40:06;;;;;;;0.80;0.30;;;7.60;99.90;;;;;;5052257;28;20208;-63
2023/11/28 00:42:33;;;;;;;0.20;0.20;;;7.70;99.90;;;;;;5052343;28;20206;-63
2023/11/28 00:45:00;;;;;;;0.37;0.30;;;7.70;99.90;;;;;;5051854;28;20276;-62
2023/11/28 00:47:28;;;;;;;0.20;0.20;;;7.70;99.90;;;;;;5051950;28;20217;-63
2023/11/28 00:49:54;;;;;;;0.40;0.30;;;7.70;99.90;;;;;;5052131;28;20212;-63
2023/11/28 00:52:21;;;;;;;0.27;0.20;;;7.70;99.90;;;;;;5052282;28;20206;-63
2023/11/28 00:54:48;;;;;;;0.37;0.30;;;7.70;99.90;;;;;;5051989;28;20314;-62
2023/11/28 00:57:14;;;;;;;0.20;0.17;;;7.70;99.90;;;;;;5051814;28;20205;-62
2023/11/28 00:59:42;;;;;;;0.40;0.27;;;7.70;99.90;;;;;;5051823;28;20232;-63
2023/11/28 01:02:09;;;;;;;0.20;0.20;;;7.70;99.90;;;;;;5051758;28;20207;-63
2023/11/28 01:04:37;;;;;;;1.03;0.40;;;7.80;99.90;;;;;;5051932;28;20221;-61
2023/11/28 01:07:04;;;;;;;0.20;0.20;;;7.80;99.90;;;;;;5051539;28;20283;-61
2023/11/28 01:09:30;;;;;;;0.57;0.20;;;7.90;99.90;;;;;;5051727;28;20201;-63
2023/11/28 01:11:57;;;;;;;0.63;0.23;;;7.90;99.90;;;;;;5051513;28;20319;-63
2023/11/28 01:14:24;;;;;;;0.50;0.40;;;8.00;99.90;;;;;;5051595;28;20233;-63
2023/11/28 01:16:50;;;;;;;0.57;0.33;;;8.00;99.90;;;;;;5051886;28;20197;-63
2023/11/28 01:19:17;;;;;;;0.30;0.30;;;7.90;99.90;;;;;;5051454;28;20667;-63
2023/11/28 01:21:45;;;;;;;0.50;0.40;;;7.80;99.90;;;;;;5051382;28;20695;-63
2023/11/28 01:24:12;;;;;;;0.20;0.20;;;7.70;99.90;;;;;;5051332;28;20225;-63
2023/11/28 01:26:38;;;;;;;0.83;0.20;;;7.70;99.90;;;;;;5051048;28;20213;-62
2023/11/28 01:29:05;;;;;;;0.20;0.20;;;7.80;99.90;;;;;;5051492;28;20206;-62
2023/11/28 01:31:32;;;;;;;0.30;0.30;;;7.80;99.90;;;;;;5051190;28;20690;-63
2023/11/28 01:33:58;;;;;;;0.20;0.20;;;7.80;99.90;;;;;;5051595;28;20230;-62
2023/11/28 01:36:25;;;;;;;0.63;0.30;;;7.90;99.90;;;;;;5051163;28;20198;-62
2023/11/28 01:38:53;;;;;;;0.40;0.30;;;7.90;99.90;;;;;;5051236;28;20205;-63
2023/11/28 01:41:20;;;;;;;0.50;0.47;;;7.90;99.90;;;;;;5051111;28;20206;-63
2023/11/28 01:43:46;;;;;;;0.33;0.30;;;8.00;99.90;;;;;;5051204;28;20225;-61
2023/11/28 01:46:13;;;;;;;0.30;0.30;;;8.00;99.90;;;;;;5051140;28;20232;-62
2023/11/28 01:48:40;;;;;;;0.67;0.20;;;8.10;99.90;;;;;;5051205;28;20221;-63
2023/11/28 01:51:08;;;;;;;0.23;0.13;;;8.10;99.90;;;;;;5050881;28;20214;-62
2023/11/28 01:53:35;;;;;;;0.50;0.23;;;8.10;99.90;;;;;;5050964;28;20232;-62
2023/11/28 01:56:04;;;;;;;0.30;0.20;;;8.10;99.90;;;;;;5051008;28;20224;-63
2023/11/28 01:58:31;;;;;;;0.33;0.20;;;8.20;99.90;;;;;;5051160;28;20205;-61
2023/11/28 02:00:59;;;;;;;0.37;0.30;;;8.20;99.90;;;;;;5050389;28;20213;-61
2023/11/28 02:03:28;;;;;;;0.43;0.30;;;8.20;99.90;;;;;;5051000;28;20771;-62
2023/11/28 02:05:54;;;;;;;0.20;0.20;;;8.20;99.90;;;;;;5050758;28;20264;-63
2023/11/28 02:08:21;;;;;;;1.47;0.30;;;8.20;99.90;;;;;;5042901;28;20202;-62
2023/11/28 02:10:49;;;;;;;0.30;0.30;;;8.20;99.90;;;;;;5051080;28;20201;-63
2023/11/28 02:13:17;;;;;;;0.37;0.37;;;8.20;99.90;;;;;;5050574;28;20230;-63
2023/11/28 02:15:45;;;;;;;0.80;0.50;;;8.20;99.90;;;;;;5050860;28;20206;-61
2023/11/28 02:18:13;;;;;;;1.47;0.30;;;8.20;99.90;;;;;;5050790;28;20201;-61
2023/11/28 02:20:40;;;;;;;0.60;0.40;;;8.30;99.90;;;;;;5050708;28;20205;-61
2023/11/28 02:23:08;;;;;;;0.70;0.37;;;8.30;99.90;;;;;;5050797;28;20212;-60
2023/11/28 02:25:41;;;;;;;0.50;0.27;;;8.30;99.90;;;;;;5050634;28;20216;-61
2023/11/28 02:28:09;;;;;;;0.67;0.20;;;8.30;99.90;;;;;;5050858;28;20240;-59
2023/11/28 02:30:35;;;;;;;1.40;0.67;;;8.20;99.90;;;;;;5050789;28;20197;-61
2023/11/28 02:33:02;;;;;;;0.80;0.37;;;8.20;99.90;;;;;;5050570;28;20233;-62
2023/11/28 02:35:29;;;;;;;0.40;0.30;;;8.20;99.90;;;;;;5050668;28;20202;-62
2023/11/28 02:37:56;;;;;;;0.30;0.23;;;8.20;99.90;;;;;;5050370;28;20209;-61
2023/11/28 02:40:22;;;;;;;0.87;0.30;;;8.20;99.90;;;;;;5050828;28;20198;-62
2023/11/28 02:42:49;;;;;;;0.73;0.50;;;8.30;99.90;;;;;;5050690;28;20201;-62
2023/11/28 02:45:17;;;;;;;0.90;0.70;;;8.30;99.90;;;;;;5050554;28;20233;-61
2023/11/28 02:47:44;;;;;;;0.80;0.50;;;8.30;99.90;;;;;;5050473;28;20245;-60
2023/11/28 02:50:10;;;;;;;0.77;0.37;;;8.30;99.90;;;;;;5050688;28;20262;-62
2023/11/28 02:52:39;;;;;;;0.87;0.30;;;8.30;99.90;;;;;;5050347;28;20576;-62
2023/11/28 02:55:06;;;;;;;0.20;0.20;;;8.40;99.90;;;;;;5050475;28;20249;-61
2023/11/28 02:57:33;;;;;;;0.40;0.30;;;8.40;99.90;;;;;;5050295;28;20201;-62
2023/11/28 03:00:00;;;;;;;0.60;0.40;;;8.40;99.90;;;;;;5050275;28;20683;-61
2023/11/28 03:02:29;;;;;;;0.83;0.30;;;8.40;99.90;;;;;;5050400;28;20620;-62
2023/11/28 03:04:56;;;;;;;1.00;0.30;;;8.50;99.90;;;;;;5050629;28;20229;-62
2023/11/28 03:07:22;;;;;;;0.60;0.50;;;8.50;99.90;;;;;;5042011;28;20718;-62
2023/11/28 03:09:49;;;;;;;0.87;0.53;;;8.50;99.90;;;;;;5050351;28;20213;-61
2023/11/28 03:12:16;;;;;;;0.80;0.60;;;8.40;99.90;;;;;;5051581;28;20209;-62
2023/11/28 03:14:42;;;;;;;0.73;0.43;;;8.40;99.90;;;;;;5053835;28;20715;-61
2023/11/28 03:17:09;;;;;;;1.00;0.40;;;8.40;99.90;;;;;;5053584;28;20206;-61
2023/11/28 03:19:37;;;;;;;0.40;0.40;;;8.40;99.90;;;;;;5053939;28;20577;-61
2023/11/28 03:22:04;;;;;;;0.83;0.53;;;8.40;99.90;;;;;;5053720;28;20243;-62
2023/11/28 03:24:32;;;;;;;0.90;0.60;;;8.40;99.90;;;;;;5053780;28;20222;-61
2023/11/28 03:26:59;;;;;;;2.07;0.30;;;8.40;99.90;;;;;;5053509;28;20225;-62
2023/11/28 03:29:26;;;;;;;1.20;0.47;;;8.40;99.90;;;;;;5053667;28;20723;-62
2023/11/28 03:31:52;;;;;;;1.00;0.40;;;8.30;99.90;;;;;;5053810;28;20209;-60
2023/11/28 03:34:19;;;;;;;0.50;0.30;;;8.30;99.90;;;;;;5053553;28;20225;-62
2023/11/28 03:36:47;;;;;;;0.83;0.57;;;8.30;99.90;;;;;;5053532;28;20301;-62
2023/11/28 03:39:15;;;;;;;1.50;0.50;;;8.20;99.90;;;;;;5053539;28;20214;-61
2023/11/28 03:41:42;;;;;;;0.60;0.33;;;8.30;99.90;;;;;;5053303;28;20279;-61
2023/11/28 03:44:09;;;;;;;0.37;0.30;;;8.30;99.90;;;;;;5053767;28;20295;-60
2023/11/28 03:46:35;;;;;;;0.30;0.30;;;8.40;99.90;;;;;;5053112;28;20226;-61
2023/11/28 03:49:02;;;;;;;0.57;0.30;;;8.30;99.90;;;;;;5053180;28;20206;-61
2023/11/28 03:51:29;;;;;;;1.13;0.40;;;8.40;99.90;;;;;;5053288;28;20202;-59
2023/11/28 03:53:57;;;;;;;0.63;0.30;;;8.40;99.90;;;;;;5053218;28;20237;-61
2023/11/28 03:56:24;;;;;;;0.17;0.13;;;8.40;99.90;;;;;;5045451;28;20217;-61
2023/11/28 03:58:51;;;;;;;0.10;0.10;;;8.40;99.90;;;;;;5053293;28;20209;-61
2023/11/28 04:01:18;;;;;;;0.23;0.23;;;8.40;99.90;;;;;;5053115;28;20209;-63
2023/11/28 04:03:45;;;;;;;0.30;0.20;;;8.50;99.90;;;;;;5053031;28;20654;-61
2023/11/28 04:06:12;;;;;;;0.50;0.30;;;8.40;99.90;;;;;;5052629;28;20202;-63
2023/11/28 04:08:39;;;;;;;0.60;0.40;;;8.40;99.90;;;;;;5052871;28;20824;-61
2023/11/28 04:11:08;;;;;;;0.40;0.40;;;8.50;99.90;;;;;;5052611;28;20232;-60
2023/11/28 04:13:35;;;;;;;0.60;0.40;;;8.50;99.90;;;;;;5053182;28;20233;-58
2023/11/28 04:16:02;;;;;;;0.80;0.50;;;8.50;99.90;;;;;;5052644;28;20257;-58
2023/11/28 04:18:30;;;;;;;2.17;1.67;;;8.50;99.90;;;;;;5052974;28;20205;-58
2023/11/28 04:20:57;;;;;;;1.40;0.70;;;8.50;99.90;;;;;;5052657;28;20826;-58
2023/11/28 04:23:24;;;;;;;1.80;0.87;;;8.50;99.90;;;;;;5052246;28;20217;-58
2023/11/28 04:25:51;;;;;;;0.90;0.43;;;8.50;99.90;;;;;;5052327;28;20205;-58
2023/11/28 04:28:19;;;;;;;0.67;0.60;;;8.50;99.90;;;;;;5052619;28;20225;-59
2023/11/28 04:30:45;;;;;;;1.00;0.60;;;8.50;99.90;;;;;;5052361;28;20698;-59
2023/11/28 04:33:12;;;;;;;2.77;0.50;;;8.50;99.90;;;;;;5052275;28;20702;-59
2023/11/28 04:35:39;;;;;;;0.20;0.20;;;8.50;99.90;;;;;;5052290;28;20207;-58
2023/11/28 04:38:05;;;;;;;0.30;0.30;;;8.50;99.90;;;;;;5052236;28;20206;-58
2023/11/28 04:40:32;;;;;;;0.83;0.77;;;8.50;99.90;;;;;;5052167;28;20208;-59
2023/11/28 04:42:59;;;;;;;0.87;0.60;;;8.60;99.90;;;;;;5052146;28;20667;-57
2023/11/28 04:45:27;;;;;;;0.40;0.30;;;8.50;99.90;;;;;;5044332;28;20200;-60
2023/11/28 04:47:53;;;;;;;0.43;0.40;;;8.50;99.90;;;;;;5051913;28;20222;-60
2023/11/28 04:50:20;;;;;;;0.80;0.57;;;8.50;99.90;;;;;;5052080;28;20581;-60
2023/11/28 04:52:47;;;;;;;0.80;0.50;;;8.50;99.90;;;;;;5052089;28;20201;-60
2023/11/28 04:55:14;;;;;;;0.57;0.30;;;8.50;99.90;;;;;;5051992;28;20282;-60
2023/11/28 04:57:40;;;;;;;0.43;0.30;;;8.40;99.90;;;;;;5052119;28;20205;-60
2023/11/28 05:00:08;;;;;;;1.97;0.37;;;8.30;99.90;;;;;;5051864;28;20206;-60
2023/11/28 05:02:37;;;;;;;0.90;0.40;;;8.30;99.90;;;;;;5052113;28;20201;-60
2023/11/28 05:05:05;;;;;;;0.50;0.50;;;8.30;99.90;;;;;;5051785;28;20232;-60
2023/11/28 05:07:32;;;;;;;0.40;0.30;;;8.30;99.90;;;;;;5051566;28;20218;-59
2023/11/28 05:09:59;;;;;;;0.30;0.30;;;8.30;99.90;;;;;;5051753;28;20212;-60
2023/11/28 05:12:26;;;;;;;1.27;0.50;;;8.30;99.90;;;;;;5043832;28;20298;-59
2023/11/28 05:14:53;;;;;;;0.90;0.30;;;8.20;99.90;;;;;;5051322;28;20237;-60
2023/11/28 05:17:19;;;;;;;2.00;0.30;;;8.20;99.90;;;;;;5051534;28;20628;-60
2023/11/28 05:19:47;;;;;;;0.70;0.27;;;8.20;99.90;;;;;;5051586;28;20672;-60
2023/11/28 05:22:14;;;;;;;0.30;0.20;;;8.20;99.90;;;;;;5051401;28;20624;-59
2023/11/28 05:24:41;;;;;;;1.53;0.23;;;8.20;99.90;;;;;;5051677;28;20221;-60
2023/11/28 05:27:08;;;;;;;0.37;0.23;;;8.30;99.90;;;;;;5051272;28;20227;-60
2023/11/28 05:29:35;;;;;;;1.53;0.50;;;8.20;99.90;;;;;;5051618;28;20597;-60
2023/11/28 05:32:04;;;;;;;0.93;0.40;;;8.30;99.90;;;;;;5051184;28;20236;-60
2023/11/28 05:34:31;;;;;;;0.30;0.30;;;8.40;99.90;;;;;;5050503;28;20339;-58
2023/11/28 05:36:59;;;;;;;2.83;1.17;;;8.50;99.90;;;;;;5051108;28;20213;-60
2023/11/28 05:39:26;;;;;;;1.37;0.90;;;8.40;99.90;;;;;;5051429;28;20292;-58
2023/11/28 05:41:52;;;;;;;1.03;0.90;;;8.50;99.90;;;;;;5051384;28;20212;-58
2023/11/28 05:44:20;;;;;;;1.13;0.57;;;8.40;99.90;;;;;;5050881;28;20670;-59
2023/11/28 05:46:47;;;;;;;0.90;0.77;;;8.40;99.90;;;;;;5050922;28;20206;-58
2023/11/28 05:49:14;;;;;;;1.00;0.60;;;8.30;99.90;;;;;;5050899;28;20678;-59
2023/11/28 05:51:41;;;;;;;1.30;1.07;;;8.20;99.90;;;;;;5051123;28;20751;-58
2023/11/28 05:54:09;;;;;;;0.40;0.40;;;8.20;99.90;;;;;;5050850;28;20780;-60
2023/11/28 05:56:35;;;;;;;2.13;1.83;;;8.20;99.90;;;;;;5050860;28;20201;-61
2023/11/28 05:59:02;;;;;;;0.70;0.60;;;8.20;99.90;;;;;;5051016;28;20201;-60
2023/11/28 06:01:29;;;;;;;1.20;1.00;;;8.00;99.90;;;;;;5050840;28;20198;-60
2023/11/28 06:03:56;;;;;;;0.67;0.63;;;7.80;99.90;;;;;;5050896;28;20225;-62
2023/11/28 06:06:22;;;;;;;1.17;0.60;;;7.80;99.90;;;;;;5051123;28;20259;-58
2023/11/28 06:08:49;;;;;;;0.80;0.70;;;7.80;99.90;;;;;;5051266;28;20243;-59
2023/11/28 06:11:17;;;;;;;1.13;1.03;;;7.60;99.90;;;;;;5051143;28;20347;-60
2023/11/28 06:13:44;;;;;;;0.70;0.70;;;7.50;99.90;;;;;;5050923;28;20324;-59
2023/11/28 06:16:13;;;;;;;2.67;1.00;;;7.40;99.90;;;;;;5050529;28;20213;-59
2023/11/28 06:18:40;;;;;;;1.03;0.70;;;7.50;99.90;;;;;;5051028;28;20206;-59
2023/11/28 06:21:09;;;;;;;1.10;0.80;;;7.60;99.90;;;;;;5050348;28;20213;-61
2023/11/28 06:23:35;;;;;;;0.93;0.80;;;7.60;99.90;;;;;;5050807;28;20225;-58
2023/11/28 06:26:02;;;;;;;0.80;0.70;;;7.70;99.90;;;;;;5050524;28;20202;-59
2023/11/28 06:28:30;;;;;;;0.57;0.57;;;7.70;99.90;;;;;;5042747;28;20218;-59
2023/11/28 06:30:57;;;;;;;0.30;0.30;;;7.60;99.90;;;;;;5051033;28;20240;-60
2023/11/28 06:33:24;;;;;;;0.30;0.30;;;7.30;99.90;;;;;;5051120;28;20615;-59
2023/11/28 06:35:51;;;;;;;0.40;0.30;;;7.20;99.90;;;;;;5051733;28;20213;-59
2023/11/28 06:38:18;;;;;;;0.93;0.50;;;7.10;99.90;;;;;;5051677;28;20655;-59
2023/11/28 06:40:44;;;;;;;2.57;0.43;;;7.10;99.90;;;;;;5054457;28;20208;-60
2023/11/28 06:43:11;;;;;;;1.67;0.30;;;6.80;99.90;;;;;;5060780;28;20566;-60
2023/11/28 06:45:39;;;;;;;3.60;0.60;;;6.20;99.90;;;;;;5060804;28;20212;-59
2023/11/28 06:48:07;;;;;;;0.40;0.33;;;6.00;99.90;;;;;;5057486;28;20323;-59
2023/11/28 06:50:34;;;;;;;8.77;7.83;;;5.80;99.90;;;;;;5057015;28;20272;-59
2023/11/28 06:53:02;;;;;;;0.77;0.70;;;5.90;99.90;;;;;;5055182;28;20236;-58
2023/11/28 06:55:29;;;;;;;1.23;1.03;;;5.90;99.90;;;;;;5047723;28;20228;-61
2023/11/28 06:57:56;;;;;;;0.80;0.80;;;5.90;99.90;;;;;;5055505;28;20288;-59
2023/11/28 07:00:23;;;;;;;0.43;0.40;;;5.90;99.90;;;;;;5055214;28;20543;-60
2023/11/28 07:02:51;;;;;;;0.60;0.50;;;6.00;99.90;;;;;;5054909;28;20205;-59
2023/11/28 07:05:18;;;;;;;0.83;0.83;;;6.00;99.90;;;;;;5054289;28;20229;-59
2023/11/28 07:07:44;;;;;;;0.83;0.50;;;6.10;99.90;;;;;;5054207;28;20229;-59
2023/11/28 07:10:11;;;;;;;1.30;0.77;;;6.10;99.90;;;;;;5054047;28;20205;-61
2023/11/28 07:12:38;;;;;;;0.73;0.70;;;6.20;99.90;;;;;;5054324;28;20205;-59
2023/11/28 07:15:05;;;;;;;0.73;0.60;;;6.20;99.90;;;;;;5054007;28;20552;-60
2023/11/28 07:17:32;;;;;;;1.20;0.50;;;6.00;99.90;;;;;;5054329;28;20202;-59
2023/11/28 07:20:01;;;;;;;0.87;0.80;;;6.00;99.90;;;;;;5054585;28;20267;-59
2023/11/28 07:22:28;;;;;;;1.07;0.60;;;5.90;99.90;;;;;;5054346;28;20584;-59
2023/11/28 07:24:54;;;;;;;1.37;0.73;;;5.80;99.90;;;;;;5055120;28;20237;-59
2023/11/28 07:27:21;;;;;;;0.50;0.50;;;5.60;99.90;;;;;;5054294;28;20691;-59
2023/11/28 07:29:48;;;;;;;1.63;1.07;;;5.60;99.90;;;;;;5055172;28;20206;-59
2023/11/28 07:32:15;;;;;;;0.33;0.33;;;5.50;99.90;;;;;;5055520;28;20225;-59
2023/11/28 07:34:41;;;;;;;0.30;0.30;;;5.30;99.90;;;;;;5055646;28;20233;-60
2023/11/28 07:37:09;;;;;;;0.30;0.30;;;5.40;99.90;;;;;;5054657;28;20213;-58
2023/11/28 07:39:36;;;;;;;0.77;0.67;;;5.40;99.90;;;;;;5054655;28;20606;-59
2023/11/28 07:42:03;;;;;;;0.97;0.47;;;5.50;99.90;;;;;;5054718;28;20244;-59
2023/11/28 07:44:30;;;;;;;0.30;0.30;;;5.50;99.90;;;;;;5046658;28;20230;-60
2023/11/28 07:46:57;;;;;;;0.37;0.37;;;5.50;99.90;;;;;;5054953;28;20237;-59
2023/11/28 07:49:23;;;;;;;5.17;0.60;;;5.40;99.90;;;;;;5055314;28;20229;-58
2023/11/28 07:51:50;;;;;;;0.93;0.57;;;5.30;99.90;;;;;;5055429;28;20578;-59
2023/11/28 07:54:18;;;;;;;1.93;0.40;;;5.20;99.90;;;;;;5055141;28;20226;-59
2023/11/28 07:56:45;;;;;;;0.20;0.20;;;5.20;99.90;;;;;;5054874;28;20210;-59
2023/11/28 07:59:11;;;;;;;0.80;0.70;;;5.20;99.90;;;;;;5054397;28;20202;-59
2023/11/28 08:01:39;;;;;;;0.30;0.30;;;5.20;99.90;;;;;;5054633;28;20202;-60
2023/11/28 08:04:06;;;;;;;0.50;0.50;;;5.20;99.90;;;;;;5054480;28;20225;-60
2023/11/28 08:06:34;;;;;;;0.87;0.50;;;5.20;99.90;;;;;;5054570;28;20729;-59
2023/11/28 08:09:00;;;;;;;1.00;0.63;;;5.20;99.90;;;;;;5054604;28;20232;-59
2023/11/28 08:11:28;;;;;;;0.50;0.50;;;5.20;99.90;;;;;;5054235;28;20205;-59
2023/11/28 08:13:55;;;;;;;0.60;0.60;;;5.20;99.90;;;;;;5055343;28;20241;-58
2023/11/28 08:16:23;;;;;;;1.03;0.60;;;5.10;99.90;;;;;;5055609;28;20213;-58
2023/11/28 08:18:50;;;;;;;0.60;0.50;;;4.90;99.90;;;;;;5055667;28;20375;-58
2023/11/28 08:21:16;;;;;;;0.40;0.40;;;5.00;99.90;;;;;;5055235;28;20206;-59
2023/11/28 08:23:44;;;;;;;0.73;0.60;;;5.00;99.90;;;;;;5054986;28;20229;-58
2023/11/28 08:26:11;;;;;;;0.77;0.67;;;5.10;99.90;;;;;;5054805;28;20237;-59
2023/11/28 08:28:39;;;;;;;0.87;0.60;;;5.10;99.90;;;;;;5054784;28;20221;-58
2023/11/28 08:31:09;;;;;;;0.77;0.70;;;5.10;99.90;;;;;;5054754;28;20585;-60
2023/11/28 08:33:35;;;;;;;0.50;0.50;;;5.10;99.90;;;;;;5055042;28;20221;-57
2023/11/28 08:36:02;;;;;;;0.50;0.50;;;4.90;99.90;;;;;;5055485;28;20209;-58
2023/11/28 08:38:29;;;;;;;0.40;0.40;;;4.90;99.90;;;;;;5054742;28;20209;-59
2023/11/28 08:40:56;;;;;;;1.27;1.13;;;5.00;99.90;;;;;;5054844;28;20218;-57
2023/11/28 08:43:23;;;;;;;0.60;0.57;;;5.00;99.90;;;;;;5055005;28;20590;-58
2023/11/28 08:45:51;;;;;;;0.60;0.60;;;5.00;99.90;;;;;;5054833;28;20209;-57
2023/11/28 08:48:18;;;;;;;1.20;0.90;;;4.80;99.90;;;;;;5054213;28;20312;-58
2023/11/28 08:50:45;;;;;;;0.93;0.60;;;4.90;99.90;;;;;;5053896;28;20202;-60
2023/11/28 08:53:11;;;;;;;0.70;0.70;;;4.90;99.90;;;;;;5054182;28;20217;-59
2023/11/28 08:55:38;;;;;;;0.50;0.50;;;5.00;99.90;;;;;;5053474;28;20197;-59
2023/11/28 08:58:05;;;;;;;0.60;0.60;;;4.90;99.90;;;;;;5053823;28;20209;-59
2023/11/28 09:00:32;;;;;;;3.53;0.60;;;4.80;99.90;;;;;;5045867;28;20198;-59
2023/11/28 09:03:01;;;;;;;1.10;0.57;;;4.80;99.90;;;;;;5053243;28;20213;-58
2023/11/28 09:05:28;;;;;;;0.97;0.70;;;4.80;99.90;;;;;;5053062;28;20251;-58
2023/11/28 09:07:57;;;;;;;0.60;0.60;;;4.70;99.90;;;;;;5053314;28;20284;-59
2023/11/28 09:10:23;;;;;;;0.53;0.50;;;4.70;99.90;;;;;;5052723;28;20210;-62
2023/11/28 09:12:50;;;;;;;0.40;0.40;;;4.70;99.90;;;;;;5053576;28;20623;-58
2023/11/28 09:15:17;;;;;;;3.00;1.40;;;4.80;99.90;;;;;;5054174;28;20723;-59
2023/11/28 09:17:44;;;;;;;0.50;0.50;;;4.70;99.90;;;;;;5054897;28;20209;-59
2023/11/28 09:20:12;;;;;;;0.80;0.60;;;4.70;99.90;;;;;;5055213;28;20263;-58
2023/11/28 09:22:40;;;;;;;0.93;0.60;;;4.60;99.90;;;;;;5053233;28;20601;-58
2023/11/28 09:25:09;;;;;;;1.07;0.80;;;4.60;99.90;;;;;;5053685;28;20225;-58
2023/11/28 09:27:36;;;;;;;2.57;1.60;;;4.70;99.90;;;;;;5045572;28;20248;-59
2023/11/28 09:30:03;;;;;;;0.80;0.80;;;4.70;99.90;;;;;;5054169;28;20714;-58
2023/11/28 09:32:30;;;;;;;0.60;0.60;;;4.70;99.90;;;;;;5053542;28;20262;-59
2023/11/28 09:34:57;;;;;;;0.43;0.43;;;4.70;99.90;;;;;;5053402;28;20225;-59
2023/11/28 09:37:25;;;;;;;0.60;0.60;;;4.90;99.90;;;;;;5053065;28;20202;-60
2023/11/28 09:39:52;;;;;;;0.90;0.43;;;4.90;99.90;;;;;;5053067;28;20220;-59
2023/11/28 09:42:21;;;;;;;2.40;0.50;;;5.00;99.90;;;;;;5052752;28;20202;-59
2023/11/28 09:44:49;;;;;;;0.50;0.50;;;5.00;99.90;;;;;;5053418;28;20225;-59
2023/11/28 09:47:17;;;;;;;0.50;0.47;;;4.90;99.90;;;;;;5052998;28;20218;-65
2023/11/28 09:49:46;;;;;;;0.63;0.30;;;4.90;99.90;;;;;;5053446;28;20232;-59
2023/11/28 09:52:15;;;;;;;0.50;0.50;;;4.90;99.90;;;;;;5053146;28;20667;-59
2023/11/28 09:54:45;;;;;;;1.20;0.50;;;4.90;99.90;;;;;;5050421;28;20810;-59
2023/11/28 09:57:12;;;;;;;1.03;0.60;;;5.10;99.90;;;;;;5052433;28;20236;-59
2023/11/28 09:59:40;;;;;;;2.73;1.73;;;5.20;99.90;;;;;;5052536;28;20694;-59
2023/11/28 10:02:08;;;;;;;1.07;0.80;;;5.20;99.90;;;;;;5052801;28;20210;-59
2023/11/28 10:04:36;;;;;;;1.33;1.23;;;5.10;99.90;;;;;;5045800;28;20225;-58
2023/11/28 10:07:06;;;;;;;2.53;2.30;;;5.10;99.90;;;;;;5054146;28;20228;-59
2023/11/28 10:09:33;;;;;;;4.27;3.27;;;5.10;99.90;;;;;;5052725;28;20703;-58
2023/11/28 10:12:06;;;;;;;2.40;2.20;;;5.30;99.90;;;;;;5052100;28;20201;-63
2023/11/28 10:14:33;;;;;;;1.70;1.60;;;5.40;99.90;;;;;;5074721;23;20730;-55
2023/11/28 10:16:59;;;;;;;2.50;2.30;;;5.40;99.90;;;;;;5042081;28;20209;-58
2023/11/28 10:19:26;;;;;;;2.90;2.70;;;5.50;99.90;;;;;;5039896;28;20201;-58
2023/11/28 10:21:53;;;;;;;2.00;1.80;;;5.60;99.90;;;;;;5041522;28;20340;-58
2023/11/28 10:24:21;;;;;;;1.90;1.63;;;5.60;99.90;;;;;;5044570;28;20237;-59
2023/11/28 10:26:47;;;;;;;1.93;1.30;;;5.60;99.90;;;;;;5050458;28;20262;-59
2023/11/28 10:29:18;;;;;;;0.87;0.80;;;5.70;99.90;;;;;;5048932;28;20230;-57
2023/11/28 10:31:45;;;;;;;6.53;5.17;;;5.70;99.90;;;;;;5046846;28;20586;-56
2023/11/28 10:34:12;;;;;;;1.27;1.00;;;5.80;99.90;;;;;;5045610;28;20233;-56
2023/11/28 10:36:40;;;;;;;0.87;0.87;;;5.80;99.90;;;;;;5042259;28;20261;-56
2023/11/28 10:39:08;;;;;;;0.70;0.70;;;5.70;99.90;;;;;;5042791;28;20230;-56
2023/11/28 10:41:35;;;;;;;1.10;0.60;;;5.50;99.90;;;;;;5042932;28;20237;-55
2023/11/28 10:44:02;;;;;;;1.63;0.83;;;5.50;99.90;;;;;;5042875;28;20234;-57
2023/11/28 10:46:34;;;;;;;0.83;0.80;;;5.50;99.90;;;;;;5045120;28;20272;-56
2023/11/28 10:49:01;;;;;;;1.17;0.80;;;5.40;99.90;;;;;;5045961;28;20218;-55
2023/11/28 10:51:29;;;;;;;1.20;1.10;;;5.30;99.90;;;;;;5043586;28;20219;-55
2023/11/28 10:54:03;;;;;;;2.90;2.30;;;5.30;99.90;;;;;;5042557;28;20222;-56
2023/11/28 10:56:45;;;;;;;1.20;1.10;;;5.30;99.90;;;;;;5044773;28;20214;-55
2023/11/28 10:59:26;;;;;;;1.40;0.90;;;5.20;99.90;;;;;;5045745;28;20197;-55
2023/11/28 11:01:55;;;;;;;1.20;1.10;;;5.30;99.90;;;;;;5042370;28;20214;-56
2023/11/28 11:04:22;;;;;;;2.10;1.40;;;5.20;99.90;;;;;;5044042;28;20230;-56
2023/11/28 11:06:49;;;;;;;1.07;1.00;;;5.00;99.90;;;;;;5045592;28;20216;-55
2023/11/28 11:09:17;;;;;;;1.20;1.10;;;4.90;99.90;;;;;;5045042;28;20244;-55
2023/11/28 11:11:45;;;;;;;1.63;0.77;;;5.00;99.90;;;;;;5041948;28;20237;-55
2023/11/28 11:14:23;;;;;;;0.70;0.63;;;4.80;99.90;;;;;;5041995;28;20249;-55
2023/11/28 11:17:01;;;;;;;2.20;1.57;;;4.70;99.90;;;;;;5045350;28;20267;-56
2023/11/28 11:19:29;;;;;;;1.07;0.67;;;4.40;99.90;;;;;;5043116;28;20202;-56
2023/11/28 11:21:59;;;;;;;3.10;1.10;;;4.20;99.90;;;;;;5042204;28;20210;-57
2023/11/28 11:24:27;;;;;;;2.70;0.80;;;4.20;99.90;;;;;;5044022;28;20218;-56
2023/11/28 11:26:54;;;;;;;2.83;0.83;;;4.40;99.90;;;;;;5045832;28;20217;-55
2023/11/28 11:29:40;;;;;;;1.10;0.93;;;4.20;99.90;;;;;;5043961;28;20222;-55
2023/11/28 11:32:11;;;;;;;2.00;1.40;;;4.20;99.90;;;;;;5041018;28;20282;-56
2023/11/28 11:34:41;;;;;;;4.57;1.77;;;4.50;99.90;;;;;;5041711;28;20259;-56
2023/11/28 11:37:13;;;;;;;1.80;1.20;;;4.60;99.90;;;;;;5041638;28;20750;-57
2023/11/28 11:39:41;;;;;;;1.20;1.10;;;4.70;99.90;;;;;;5041990;28;20203;-58
2023/11/28 11:42:09;;;;;;;1.87;1.40;;;4.80;99.90;;;;;;5041753;28;20206;-57
2023/11/28 11:44:36;;;;;;;1.40;1.30;;;4.90;99.90;;;;;;5044825;28;20221;-57
2023/11/28 11:47:16;;;;;;;1.50;1.40;;;4.80;99.90;;;;;;5050452;28;20660;-58
2023/11/28 11:49:44;;;;;;;4.70;1.40;;;4.90;99.90;;;;;;5041615;28;20249;-57
2023/11/28 11:52:11;;;;;;;2.60;1.47;;;4.80;99.90;;;;;;5041390;28;20313;-57
2023/11/28 11:54:38;;;;;;;3.57;1.90;;;4.80;99.90;;;;;;5048187;28;20226;-56
2023/11/28 11:57:05;;;;;;;1.60;1.50;;;4.70;99.90;;;;;;5043387;28;20221;-58
2023/11/28 11:59:32;;;;;;;10.23;9.20;;;4.70;99.90;;;;;;5045253;28;20344;-58
2023/11/28 12:02:01;;;;;;;2.23;1.70;;;4.50;99.90;;;;;;5043609;28;20233;-58
2023/11/28 12:04:29;;;;;;;2.90;1.70;;;4.30;99.90;;;;;;5050185;28;20226;-57
2023/11/28 12:07:03;;;;;;;2.10;1.60;;;4.30;99.90;;;;;;5056903;28;20213;-58
2023/11/28 12:09:30;;;;;;;1.77;1.17;;;4.30;99.90;;;;;;5052603;28;20291;-57
2023/11/28 12:11:57;;;;;;;1.70;1.40;;;4.40;99.90;;;;;;5052452;28;20689;-57
2023/11/28 12:14:24;;;;;;;1.60;1.40;;;4.50;99.90;;;;;;5052184;28;20240;-57
2023/11/28 12:16:51;;;;;;;2.30;1.50;;;4.60;99.90;;;;;;5056687;28;20214;-57
2023/11/28 12:19:18;;;;;;;1.80;1.70;;;4.40;99.90;;;;;;5052445;28;20577;-57
2023/11/28 12:21:47;;;;;;;3.70;1.80;;;4.40;99.90;;;;;;5052349;28;20213;-56
2023/11/28 12:24:13;;;;;;;3.40;1.93;;;4.30;99.90;;;;;;5051861;28;20264;-55
2023/11/28 12:26:41;;;;;;;2.20;1.47;;;4.40;99.90;;;;;;5052238;28;20271;-57
2023/11/28 12:29:08;;;;;;;3.10;1.87;;;4.20;99.90;;;;;;5051350;28;20236;-57
2023/11/28 12:31:34;;;;;;;1.87;1.63;;;4.10;99.90;;;;;;5052142;28;20202;-58
2023/11/28 12:34:01;;;;;;;2.90;2.67;;;4.10;99.90;;;;;;5052135;28;20236;-57
2023/11/28 12:36:28;;;;;;;1.87;1.47;;;4.20;99.90;;;;;;5051670;28;20214;-57
2023/11/28 12:38:59;;;;;;;12.00;8.50;;;4.20;99.90;;;;;;5051533;28;20245;-57
2023/11/28 12:41:37;;;;;;;1.80;1.60;;;4.30;99.90;;;;;;5051612;28;20214;-58
2023/11/28 12:44:04;;;;;;;1.80;1.70;;;4.40;99.90;;;;;;5055314;28;20228;-57
2023/11/28 12:46:33;;;;;;;1.60;1.40;;;4.30;99.90;;;;;;5052920;28;20214;-58
2023/11/28 12:49:00;;;;;;;5.30;1.67;;;4.30;99.90;;;;;;5052196;28;20245;-57
2023/11/28 12:51:29;;;;;;;1.70;1.50;;;4.40;99.90;;;;;;5049887;28;20634;-57
2023/11/28 12:54:02;;;;;;;2.07;1.87;;;4.50;99.90;;;;;;5056003;28;20275;-56
2023/11/28 12:56:33;;;;;;;2.33;1.80;;;4.50;99.90;;;;;;5052598;28;20241;-56
2023/11/28 12:59:01;;;;;;;3.00;2.37;;;4.40;99.90;;;;;;5051692;28;20587;-57